sensor_id;sensor_type;location;lat;lon;timestamp;pressure;altitude;pressure_sealevel;temperature;humidity
59435;BME280;45241;49.768;8.636;2023-07-31T00:02:22;100065.16;;;21.01;75.95
59435;BME280;45241;49.768;8.636;2023-07-31T00:04:47;100061.88;;;20.99;73.71
59435;BME280;45241;49.768;8.636;2023-07-31T00:07:14;100063.63;;;21.16;75.91
59435;BME280;45241;49.768;8.636;2023-07-31T00:09:39;100065.75;;;21.08;73.00
59435;BME280;45241;49.768;8.636;2023-07-31T00:12:05;100063.63;;;21.26;74.21
59435;BME280;45241;49.768;8.636;2023-07-31T00:14:30;100063.84;;;21.09;73.69
59435;BME280;45241;49.768;8.636;2023-07-31T00:16:55;100067.47;;;21.25;72.44
59435;BME280;45241;49.768;8.636;2023-07-31T00:19:20;100068.53;;;21.24;71.61
59435;BME280;45241;49.768;8.636;2023-07-31T00:21:46;100061.19;;;21.24;70.49
59435;BME280;45241;49.768;8.636;2023-07-31T00:24:11;100060.03;;;21.15;68.97
59435;BME280;45241;49.768;8.636;2023-07-31T00:26:36;100049.44;;;21.19;69.25
59435;BME280;45241;49.768;8.636;2023-07-31T00:29:02;100053.28;;;21.28;68.00
59435;BME280;45241;49.768;8.636;2023-07-31T00:31:27;100054.91;;;21.24;68.98
59435;BME280;45241;49.768;8.636;2023-07-31T00:33:52;100054.97;;;21.34;68.85
59435;BME280;45241;49.768;8.636;2023-07-31T00:36:18;100055.44;;;21.21;69.15
59435;BME280;45241;49.768;8.636;2023-07-31T00:38:43;100051.69;;;21.32;68.93
59435;BME280;45241;49.768;8.636;2023-07-31T00:41:08;100050.81;;;21.26;69.00
59435;BME280;45241;49.768;8.636;2023-07-31T00:43:34;100058.25;;;21.36;66.99
59435;BME280;45241;49.768;8.636;2023-07-31T00:45:59;100042.63;;;21.21;69.45
59435;BME280;45241;49.768;8.636;2023-07-31T00:48:25;100038.34;;;21.35;67.70
59435;BME280;45241;49.768;8.636;2023-07-31T00:50:51;100039.16;;;21.36;67.21
59435;BME280;45241;49.768;8.636;2023-07-31T00:53:16;100034.25;;;21.33;67.12
59435;BME280;45241;49.768;8.636;2023-07-31T00:55:42;100031.53;;;21.38;66.60
59435;BME280;45241;49.768;8.636;2023-07-31T00:58:08;100036.81;;;21.55;66.65
59435;BME280;45241;49.768;8.636;2023-07-31T01:00:33;100034.91;;;21.55;67.09
59435;BME280;45241;49.768;8.636;2023-07-31T01:02:59;100025.06;;;21.54;66.15
59435;BME280;45241;49.768;8.636;2023-07-31T01:05:32;100020.34;;;21.39;67.92
59435;BME280;45241;49.768;8.636;2023-07-31T01:08:05;100023.66;;;21.41;67.28
59435;BME280;45241;49.768;8.636;2023-07-31T01:10:38;100023.06;;;21.34;67.45
59435;BME280;45241;49.768;8.636;2023-07-31T01:13:07;100032.59;;;21.32;67.59
59435;BME280;45241;49.768;8.636;2023-07-31T01:15:33;100035.84;;;21.24;68.28
59435;BME280;45241;49.768;8.636;2023-07-31T01:17:58;100023.88;;;21.30;67.75
59435;BME280;45241;49.768;8.636;2023-07-31T01:20:25;100030.44;;;21.34;67.87
59435;BME280;45241;49.768;8.636;2023-07-31T01:23:20;100026.88;;;21.28;68.03
59435;BME280;45241;49.768;8.636;2023-07-31T01:26:05;100029.06;;;21.31;68.04
59435;BME280;45241;49.768;8.636;2023-07-31T01:31:21;100029.03;;;21.26;67.91
59435;BME280;45241;49.768;8.636;2023-07-31T01:33:48;100025.78;;;21.34;68.26
59435;BME280;45241;49.768;8.636;2023-07-31T01:36:14;100020.03;;;21.26;68.97
59435;BME280;45241;49.768;8.636;2023-07-31T01:38:39;100026.59;;;21.30;68.13
59435;BME280;45241;49.768;8.636;2023-07-31T01:41:05;100020.84;;;21.21;68.60
59435;BME280;45241;49.768;8.636;2023-07-31T01:43:30;100029.78;;;21.11;69.37
59435;BME280;45241;49.768;8.636;2023-07-31T01:45:56;100026.00;;;21.23;69.25
59435;BME280;45241;49.768;8.636;2023-07-31T01:48:21;100025.19;;;21.17;69.98
59435;BME280;45241;49.768;8.636;2023-07-31T01:50:46;100013.41;;;21.06;70.19
59435;BME280;45241;49.768;8.636;2023-07-31T01:53:11;100024.06;;;21.13;70.18
59435;BME280;45241;49.768;8.636;2023-07-31T01:55:38;100022.69;;;21.05;70.03
59435;BME280;45241;49.768;8.636;2023-07-31T01:58:03;100006.88;;;21.12;71.42
59435;BME280;45241;49.768;8.636;2023-07-31T02:00:29;99997.28;;;21.00;70.07
59435;BME280;45241;49.768;8.636;2023-07-31T02:02:54;99995.44;;;21.10;70.99
59435;BME280;45241;49.768;8.636;2023-07-31T02:05:19;100000.56;;;21.02;71.07
59435;BME280;45241;49.768;8.636;2023-07-31T02:07:44;99982.66;;;21.16;70.91
59435;BME280;45241;49.768;8.636;2023-07-31T02:10:10;99991.63;;;21.06;71.61
59435;BME280;45241;49.768;8.636;2023-07-31T02:12:35;99993.69;;;20.89;72.16
59435;BME280;45241;49.768;8.636;2023-07-31T02:15:01;99982.34;;;21.02;71.72
59435;BME280;45241;49.768;8.636;2023-07-31T02:17:26;99982.78;;;20.84;72.96
59435;BME280;45241;49.768;8.636;2023-07-31T02:19:51;99983.66;;;20.95;72.31
59435;BME280;45241;49.768;8.636;2023-07-31T02:22:16;99975.41;;;20.79;71.79
59435;BME280;45241;49.768;8.636;2023-07-31T02:24:42;99979.34;;;21.04;71.32
59435;BME280;45241;49.768;8.636;2023-07-31T02:27:07;99980.72;;;21.06;71.36
59435;BME280;45241;49.768;8.636;2023-07-31T02:29:32;99984.47;;;20.90;72.58
59435;BME280;45241;49.768;8.636;2023-07-31T02:31:57;99976.91;;;21.07;72.21
59435;BME280;45241;49.768;8.636;2023-07-31T02:34:23;99981.63;;;20.70;74.14
59435;BME280;45241;49.768;8.636;2023-07-31T02:36:48;99973.78;;;20.78;74.06
59435;BME280;45241;49.768;8.636;2023-07-31T02:39:13;99978.03;;;20.64;75.44
59435;BME280;45241;49.768;8.636;2023-07-31T02:41:39;99962.28;;;20.71;74.26
59435;BME280;45241;49.768;8.636;2023-07-31T02:44:04;99966.09;;;20.70;74.26
59435;BME280;45241;49.768;8.636;2023-07-31T02:46:29;99956.09;;;20.86;73.87
59435;BME280;45241;49.768;8.636;2023-07-31T02:48:54;99958.66;;;20.61;75.29
59435;BME280;45241;49.768;8.636;2023-07-31T02:51:20;99964.66;;;20.63;74.50
59435;BME280;45241;49.768;8.636;2023-07-31T02:53:47;99965.38;;;20.48;74.70
59435;BME280;45241;49.768;8.636;2023-07-31T02:56:13;99968.56;;;20.35;76.06
59435;BME280;45241;49.768;8.636;2023-07-31T02:58:38;99959.72;;;20.54;74.40
59435;BME280;45241;49.768;8.636;2023-07-31T03:01:03;99963.81;;;20.57;74.38
59435;BME280;45241;49.768;8.636;2023-07-31T03:03:28;99967.97;;;20.65;74.39
59435;BME280;45241;49.768;8.636;2023-07-31T03:05:54;99972.56;;;20.64;75.53
59435;BME280;45241;49.768;8.636;2023-07-31T03:08:19;99964.19;;;20.34;77.32
59435;BME280;45241;49.768;8.636;2023-07-31T03:10:44;99972.06;;;20.30;77.23
59435;BME280;45241;49.768;8.636;2023-07-31T03:13:10;99973.38;;;20.22;79.49
59435;BME280;45241;49.768;8.636;2023-07-31T03:15:35;99965.72;;;20.19;78.49
59435;BME280;45241;49.768;8.636;2023-07-31T03:18:00;99973.25;;;20.39;77.22
59435;BME280;45241;49.768;8.636;2023-07-31T03:20:26;99975.22;;;20.54;76.10
59435;BME280;45241;49.768;8.636;2023-07-31T03:22:51;99979.59;;;20.55;76.70
59435;BME280;45241;49.768;8.636;2023-07-31T03:25:16;99981.44;;;20.49;77.88
59435;BME280;45241;49.768;8.636;2023-07-31T03:27:41;99971.75;;;20.64;76.45
59435;BME280;45241;49.768;8.636;2023-07-31T03:30:07;99978.13;;;20.37;76.69
59435;BME280;45241;49.768;8.636;2023-07-31T03:32:32;99971.69;;;20.53;76.95
59435;BME280;45241;49.768;8.636;2023-07-31T03:34:58;99965.00;;;20.29;77.54
59435;BME280;45241;49.768;8.636;2023-07-31T03:37:23;99973.34;;;20.54;78.13
59435;BME280;45241;49.768;8.636;2023-07-31T03:39:49;99975.69;;;20.41;77.70
59435;BME280;45241;49.768;8.636;2023-07-31T03:42:14;99963.00;;;20.57;77.58
59435;BME280;45241;49.768;8.636;2023-07-31T03:44:39;99959.66;;;20.49;77.20
59435;BME280;45241;49.768;8.636;2023-07-31T03:47:05;99959.44;;;20.51;76.50
59435;BME280;45241;49.768;8.636;2023-07-31T03:49:30;99961.63;;;20.59;76.35
59435;BME280;45241;49.768;8.636;2023-07-31T03:51:56;99961.91;;;20.63;76.16
59435;BME280;45241;49.768;8.636;2023-07-31T03:54:21;99963.97;;;20.40;77.69
59435;BME280;45241;49.768;8.636;2023-07-31T03:56:46;99958.94;;;20.22;80.04
59435;BME280;45241;49.768;8.636;2023-07-31T03:59:11;99962.81;;;20.26;78.80
59435;BME280;45241;49.768;8.636;2023-07-31T04:01:37;99964.19;;;20.34;76.89
59435;BME280;45241;49.768;8.636;2023-07-31T04:04:02;99958.19;;;20.32;77.74
59435;BME280;45241;49.768;8.636;2023-07-31T04:06:27;99964.00;;;20.45;76.46
59435;BME280;45241;49.768;8.636;2023-07-31T04:08:53;99959.09;;;20.42;77.47
59435;BME280;45241;49.768;8.636;2023-07-31T04:11:18;99961.34;;;20.50;75.58
59435;BME280;45241;49.768;8.636;2023-07-31T04:13:43;99959.38;;;20.46;75.40
59435;BME280;45241;49.768;8.636;2023-07-31T04:16:09;99969.53;;;20.55;74.81
59435;BME280;45241;49.768;8.636;2023-07-31T04:18:34;99960.56;;;20.60;75.42
59435;BME280;45241;49.768;8.636;2023-07-31T04:20:59;99968.28;;;20.36;77.98
59435;BME280;45241;49.768;8.636;2023-07-31T04:23:26;99958.22;;;20.37;76.66
59435;BME280;45241;49.768;8.636;2023-07-31T04:25:51;99962.09;;;20.41;76.22
59435;BME280;45241;49.768;8.636;2023-07-31T04:28:16;99953.47;;;20.17;76.92
59435;BME280;45241;49.768;8.636;2023-07-31T04:30:42;99959.50;;;20.24;76.74
59435;BME280;45241;49.768;8.636;2023-07-31T04:33:07;99945.28;;;20.12;78.35
59435;BME280;45241;49.768;8.636;2023-07-31T04:35:32;99941.78;;;20.16;77.91
59435;BME280;45241;49.768;8.636;2023-07-31T04:37:58;99942.41;;;20.29;74.61
59435;BME280;45241;49.768;8.636;2023-07-31T04:40:23;99947.31;;;20.32;75.26
59435;BME280;45241;49.768;8.636;2023-07-31T04:42:48;99940.84;;;20.43;75.26
59435;BME280;45241;49.768;8.636;2023-07-31T04:45:14;99944.41;;;20.43;75.25
59435;BME280;45241;49.768;8.636;2023-07-31T04:47:39;99941.06;;;20.31;74.80
59435;BME280;45241;49.768;8.636;2023-07-31T04:50:05;99943.88;;;20.46;74.94
59435;BME280;45241;49.768;8.636;2023-07-31T04:52:31;99940.56;;;20.39;75.18
59435;BME280;45241;49.768;8.636;2023-07-31T04:54:56;99932.63;;;20.33;74.58
59435;BME280;45241;49.768;8.636;2023-07-31T04:57:21;99946.84;;;20.40;75.44
59435;BME280;45241;49.768;8.636;2023-07-31T04:59:46;99948.69;;;20.34;74.08
59435;BME280;45241;49.768;8.636;2023-07-31T05:02:12;99937.84;;;20.39;74.46
59435;BME280;45241;49.768;8.636;2023-07-31T05:04:38;99945.97;;;20.34;74.42
59435;BME280;45241;49.768;8.636;2023-07-31T05:07:03;99937.53;;;20.36;74.32
59435;BME280;45241;49.768;8.636;2023-07-31T05:09:29;99938.16;;;20.48;74.56
59435;BME280;45241;49.768;8.636;2023-07-31T05:11:54;99943.31;;;20.49;75.35
59435;BME280;45241;49.768;8.636;2023-07-31T05:14:19;99937.41;;;20.58;75.57
59435;BME280;45241;49.768;8.636;2023-07-31T05:16:45;99936.31;;;20.59;73.97
59435;BME280;45241;49.768;8.636;2023-07-31T05:19:10;99929.72;;;20.49;75.16
59435;BME280;45241;49.768;8.636;2023-07-31T05:21:36;99931.06;;;20.42;75.52
59435;BME280;45241;49.768;8.636;2023-07-31T05:24:01;99946.06;;;20.49;75.92
59435;BME280;45241;49.768;8.636;2023-07-31T05:26:26;99935.16;;;20.49;75.00
59435;BME280;45241;49.768;8.636;2023-07-31T05:28:52;99935.47;;;20.53;75.28
59435;BME280;45241;49.768;8.636;2023-07-31T05:31:17;99936.50;;;20.47;75.21
59435;BME280;45241;49.768;8.636;2023-07-31T05:33:42;99926.50;;;20.63;75.48
59435;BME280;45241;49.768;8.636;2023-07-31T05:36:07;99932.97;;;20.46;75.48
59435;BME280;45241;49.768;8.636;2023-07-31T05:38:33;99924.72;;;20.31;75.02
59435;BME280;45241;49.768;8.636;2023-07-31T05:40:58;99931.94;;;20.58;76.46
59435;BME280;45241;49.768;8.636;2023-07-31T05:43:23;99925.94;;;20.55;74.82
59435;BME280;45241;49.768;8.636;2023-07-31T05:45:49;99929.16;;;20.42;76.61
59435;BME280;45241;49.768;8.636;2023-07-31T05:48:14;99926.41;;;20.42;76.11
59435;BME280;45241;49.768;8.636;2023-07-31T05:50:39;99932.41;;;20.39;77.37
59435;BME280;45241;49.768;8.636;2023-07-31T05:53:05;99931.41;;;20.55;77.34
59435;BME280;45241;49.768;8.636;2023-07-31T05:55:31;99924.88;;;20.62;76.18
59435;BME280;45241;49.768;8.636;2023-07-31T05:57:56;99931.97;;;20.63;76.49
59435;BME280;45241;49.768;8.636;2023-07-31T06:00:21;99935.22;;;20.54;76.33
59435;BME280;45241;49.768;8.636;2023-07-31T06:02:47;99928.06;;;20.48;77.28
59435;BME280;45241;49.768;8.636;2023-07-31T06:05:13;99920.50;;;20.55;77.94
59435;BME280;45241;49.768;8.636;2023-07-31T06:07:38;99927.56;;;20.51;76.75
59435;BME280;45241;49.768;8.636;2023-07-31T06:10:04;99933.84;;;20.57;76.19
59435;BME280;45241;49.768;8.636;2023-07-31T06:12:34;99923.63;;;20.74;76.36
59435;BME280;45241;49.768;8.636;2023-07-31T06:15:00;99918.75;;;20.76;76.91
59435;BME280;45241;49.768;8.636;2023-07-31T06:17:25;99928.88;;;20.91;74.91
59435;BME280;45241;49.768;8.636;2023-07-31T06:19:54;99921.72;;;20.75;76.26
59435;BME280;45241;49.768;8.636;2023-07-31T06:22:19;99924.44;;;20.75;75.94
59435;BME280;45241;49.768;8.636;2023-07-31T06:24:46;99917.47;;;21.04;75.67
59435;BME280;45241;49.768;8.636;2023-07-31T06:27:11;99909.81;;;20.91;74.57
59435;BME280;45241;49.768;8.636;2023-07-31T06:29:36;99898.69;;;21.03;74.15
59435;BME280;45241;49.768;8.636;2023-07-31T06:32:02;99921.06;;;21.20;74.90
59435;BME280;45241;49.768;8.636;2023-07-31T06:34:27;99904.97;;;21.19;74.34
59435;BME280;45241;49.768;8.636;2023-07-31T06:36:53;99917.00;;;21.38;75.23
59435;BME280;45241;49.768;8.636;2023-07-31T06:39:18;99915.63;;;21.40;74.08
59435;BME280;45241;49.768;8.636;2023-07-31T06:41:44;99917.81;;;21.28;75.13
59435;BME280;45241;49.768;8.636;2023-07-31T06:44:09;99908.25;;;21.16;74.19
59435;BME280;45241;49.768;8.636;2023-07-31T06:46:35;99912.59;;;21.11;74.39
59435;BME280;45241;49.768;8.636;2023-07-31T06:49:00;99918.66;;;21.29;76.74
59435;BME280;45241;49.768;8.636;2023-07-31T06:51:25;99918.56;;;21.13;75.59
59435;BME280;45241;49.768;8.636;2023-07-31T06:53:51;99907.72;;;21.24;75.56
59435;BME280;45241;49.768;8.636;2023-07-31T06:56:16;99916.16;;;21.22;74.39
59435;BME280;45241;49.768;8.636;2023-07-31T06:58:41;99914.81;;;21.35;74.84
59435;BME280;45241;49.768;8.636;2023-07-31T07:01:07;99909.88;;;21.27;75.26
59435;BME280;45241;49.768;8.636;2023-07-31T07:03:32;99907.16;;;21.22;76.59
59435;BME280;45241;49.768;8.636;2023-07-31T07:05:57;99907.97;;;21.22;77.43
59435;BME280;45241;49.768;8.636;2023-07-31T07:08:24;99900.03;;;21.10;76.98
59435;BME280;45241;49.768;8.636;2023-07-31T07:10:49;99900.63;;;21.23;76.42
59435;BME280;45241;49.768;8.636;2023-07-31T07:13:15;99900.66;;;21.38;76.80
59435;BME280;45241;49.768;8.636;2023-07-31T07:15:40;99902.34;;;21.59;76.70
59435;BME280;45241;49.768;8.636;2023-07-31T07:18:05;99900.13;;;21.51;74.37
59435;BME280;45241;49.768;8.636;2023-07-31T07:20:31;99897.44;;;22.07;74.65
59435;BME280;45241;49.768;8.636;2023-07-31T07:22:56;99883.22;;;22.05;71.47
59435;BME280;45241;49.768;8.636;2023-07-31T07:25:21;99900.66;;;22.19;74.59
59435;BME280;45241;49.768;8.636;2023-07-31T07:27:47;99890.28;;;22.26;71.76
59435;BME280;45241;49.768;8.636;2023-07-31T07:30:12;99889.75;;;22.40;71.79
59435;BME280;45241;49.768;8.636;2023-07-31T07:32:39;99900.66;;;22.19;72.07
59435;BME280;45241;49.768;8.636;2023-07-31T07:35:05;99893.63;;;21.73;73.85
59435;BME280;45241;49.768;8.636;2023-07-31T07:37:30;99900.19;;;21.82;75.16
59435;BME280;45241;49.768;8.636;2023-07-31T07:39:55;99904.53;;;22.08;74.96
59435;BME280;45241;49.768;8.636;2023-07-31T07:42:22;99900.69;;;22.04;74.38
59435;BME280;45241;49.768;8.636;2023-07-31T07:44:48;99898.78;;;21.89;73.49
59435;BME280;45241;49.768;8.636;2023-07-31T07:47:13;99892.00;;;21.82;74.42
59435;BME280;45241;49.768;8.636;2023-07-31T07:49:38;99884.59;;;21.92;74.96
59435;BME280;45241;49.768;8.636;2023-07-31T07:52:04;99874.53;;;21.67;73.53
59435;BME280;45241;49.768;8.636;2023-07-31T07:54:30;99867.16;;;21.78;75.44
59435;BME280;45241;49.768;8.636;2023-07-31T07:56:55;99871.25;;;21.70;75.15
59435;BME280;45241;49.768;8.636;2023-07-31T07:59:20;99879.44;;;21.81;75.27
59435;BME280;45241;49.768;8.636;2023-07-31T08:01:46;99869.34;;;21.66;76.11
59435;BME280;45241;49.768;8.636;2023-07-31T08:04:11;99858.94;;;21.48;76.63
59435;BME280;45241;49.768;8.636;2023-07-31T08:06:36;99866.31;;;21.78;76.32
59435;BME280;45241;49.768;8.636;2023-07-31T08:09:02;99875.59;;;21.92;75.31
59435;BME280;45241;49.768;8.636;2023-07-31T08:11:31;99861.13;;;21.91;75.64
59435;BME280;45241;49.768;8.636;2023-07-31T08:13:56;99861.13;;;22.01;75.26
59435;BME280;45241;49.768;8.636;2023-07-31T08:16:22;99864.13;;;22.10;75.03
59435;BME280;45241;49.768;8.636;2023-07-31T08:18:47;99863.81;;;22.27;73.99
59435;BME280;45241;49.768;8.636;2023-07-31T08:21:13;99855.88;;;22.46;74.15
59435;BME280;45241;49.768;8.636;2023-07-31T08:23:39;99858.59;;;22.46;73.30
59435;BME280;45241;49.768;8.636;2023-07-31T08:26:04;99853.69;;;22.38;73.88
59435;BME280;45241;49.768;8.636;2023-07-31T08:28:29;99846.31;;;22.33;74.56
59435;BME280;45241;49.768;8.636;2023-07-31T08:30:55;99846.13;;;21.99;74.04
59435;BME280;45241;49.768;8.636;2023-07-31T08:33:20;99841.16;;;22.37;74.99
59435;BME280;45241;49.768;8.636;2023-07-31T08:35:45;99844.81;;;22.76;76.24
59435;BME280;45241;49.768;8.636;2023-07-31T08:38:12;99856.31;;;22.73;74.02
59435;BME280;45241;49.768;8.636;2023-07-31T08:40:37;99824.97;;;23.05;73.37
59435;BME280;45241;49.768;8.636;2023-07-31T08:43:05;99832.72;;;23.37;73.13
59435;BME280;45241;49.768;8.636;2023-07-31T08:45:32;99828.88;;;23.38;70.54
59435;BME280;45241;49.768;8.636;2023-07-31T08:47:58;99829.69;;;23.33;70.41
59435;BME280;45241;49.768;8.636;2023-07-31T08:50:24;99830.28;;;23.30;71.64
59435;BME280;45241;49.768;8.636;2023-07-31T08:52:50;99823.19;;;23.29;72.10
59435;BME280;45241;49.768;8.636;2023-07-31T08:55:17;99820.53;;;23.09;71.26
59435;BME280;45241;49.768;8.636;2023-07-31T08:57:42;99825.00;;;22.95;72.09
59435;BME280;45241;49.768;8.636;2023-07-31T09:00:09;99813.81;;;23.35;71.60
59435;BME280;45241;49.768;8.636;2023-07-31T09:02:58;99818.09;;;23.52;70.38
59435;BME280;45241;49.768;8.636;2023-07-31T09:05:26;99815.44;;;23.36;70.74
59435;BME280;45241;49.768;8.636;2023-07-31T09:07:51;99818.81;;;23.28;71.97
59435;BME280;45241;49.768;8.636;2023-07-31T09:10:17;99813.66;;;23.22;72.68
59435;BME280;45241;49.768;8.636;2023-07-31T09:12:42;99811.34;;;22.95;72.98
59435;BME280;45241;49.768;8.636;2023-07-31T09:15:08;99800.22;;;22.86;72.90
59435;BME280;45241;49.768;8.636;2023-07-31T09:17:35;99813.34;;;22.79;73.06
59435;BME280;45241;49.768;8.636;2023-07-31T09:20:19;99810.84;;;22.87;72.38
59435;BME280;45241;49.768;8.636;2023-07-31T09:22:45;99816.81;;;23.00;74.58
59435;BME280;45241;49.768;8.636;2023-07-31T09:25:23;99813.06;;;22.85;73.76
59435;BME280;45241;49.768;8.636;2023-07-31T09:28:05;99811.63;;;22.93;72.24
59435;BME280;45241;49.768;8.636;2023-07-31T09:30:44;99816.22;;;23.03;71.41
59435;BME280;45241;49.768;8.636;2023-07-31T09:33:10;99808.88;;;22.98;71.70
59435;BME280;45241;49.768;8.636;2023-07-31T09:35:36;99809.66;;;23.04;72.49
59435;BME280;45241;49.768;8.636;2023-07-31T09:38:08;99803.59;;;23.17;70.86
59435;BME280;45241;49.768;8.636;2023-07-31T09:40:36;99789.19;;;23.40;71.00
59435;BME280;45241;49.768;8.636;2023-07-31T09:43:04;99795.69;;;23.44;70.59
59435;BME280;45241;49.768;8.636;2023-07-31T09:45:30;99790.19;;;23.15;69.69
59435;BME280;45241;49.768;8.636;2023-07-31T09:47:56;99787.03;;;22.98;69.95
59435;BME280;45241;49.768;8.636;2023-07-31T09:50:23;99781.72;;;23.17;70.87
59435;BME280;45241;49.768;8.636;2023-07-31T09:52:50;99786.09;;;23.08;70.52
59435;BME280;45241;49.768;8.636;2023-07-31T09:55:17;99786.31;;;23.22;70.94
59435;BME280;45241;49.768;8.636;2023-07-31T09:57:46;99790.97;;;23.21;71.92
59435;BME280;45241;49.768;8.636;2023-07-31T10:00:13;99786.69;;;23.05;72.81
59435;BME280;45241;49.768;8.636;2023-07-31T10:02:38;99781.78;;;23.02;71.24
59435;BME280;45241;49.768;8.636;2023-07-31T10:05:05;99776.91;;;23.38;70.51
59435;BME280;45241;49.768;8.636;2023-07-31T10:07:36;99767.66;;;23.63;69.75
59435;BME280;45241;49.768;8.636;2023-07-31T10:10:04;99767.50;;;23.78;69.88
59435;BME280;45241;49.768;8.636;2023-07-31T10:12:31;99759.69;;;23.61;69.77
59435;BME280;45241;49.768;8.636;2023-07-31T10:14:59;99758.09;;;23.84;70.51
59435;BME280;45241;49.768;8.636;2023-07-31T10:17:25;99755.66;;;23.83;68.84
59435;BME280;45241;49.768;8.636;2023-07-31T10:19:51;99756.06;;;23.71;68.61
59435;BME280;45241;49.768;8.636;2023-07-31T10:22:19;99743.91;;;23.82;68.63
59435;BME280;45241;49.768;8.636;2023-07-31T10:24:45;99731.56;;;24.09;66.95
59435;BME280;45241;49.768;8.636;2023-07-31T10:27:11;99722.81;;;24.49;67.37
59435;BME280;45241;49.768;8.636;2023-07-31T10:29:38;99738.34;;;24.16;65.61
59435;BME280;45241;49.768;8.636;2023-07-31T10:32:05;99733.34;;;24.61;65.81
59435;BME280;45241;49.768;8.636;2023-07-31T10:34:34;99733.75;;;24.73;66.03
59435;BME280;45241;49.768;8.636;2023-07-31T10:42:34;99750.94;;;24.36;67.24
59435;BME280;45241;49.768;8.636;2023-07-31T10:45:08;99747.41;;;24.12;66.18
59435;BME280;45241;49.768;8.636;2023-07-31T10:47:45;99735.84;;;23.96;67.99
59435;BME280;45241;49.768;8.636;2023-07-31T10:52:37;99745.16;;;24.19;68.85
59435;BME280;45241;49.768;8.636;2023-07-31T10:58:11;99746.66;;;24.30;67.19
59435;BME280;45241;49.768;8.636;2023-07-31T11:00:44;99740.00;;;24.36;66.72
59435;BME280;45241;49.768;8.636;2023-07-31T11:03:17;99725.22;;;24.75;65.95
59435;BME280;45241;49.768;8.636;2023-07-31T11:08:30;99733.75;;;24.73;63.70
59435;BME280;45241;49.768;8.636;2023-07-31T11:13:28;99747.13;;;24.13;62.98
59435;BME280;45241;49.768;8.636;2023-07-31T11:15:53;99730.09;;;23.92;63.54
59435;BME280;45241;49.768;8.636;2023-07-31T11:18:19;99735.78;;;23.72;63.92
59435;BME280;45241;49.768;8.636;2023-07-31T11:20:44;99736.31;;;23.74;65.58
59435;BME280;45241;49.768;8.636;2023-07-31T11:23:11;99744.69;;;23.59;70.26
59435;BME280;45241;49.768;8.636;2023-07-31T11:25:39;99735.22;;;23.46;71.69
59435;BME280;45241;49.768;8.636;2023-07-31T11:28:12;99747.06;;;23.36;71.65
59435;BME280;45241;49.768;8.636;2023-07-31T11:30:38;99744.09;;;23.38;68.64
59435;BME280;45241;49.768;8.636;2023-07-31T11:33:05;99750.53;;;23.47;72.10
59435;BME280;45241;49.768;8.636;2023-07-31T11:35:33;99738.06;;;23.02;73.78
59435;BME280;45241;49.768;8.636;2023-07-31T11:37:59;99742.53;;;22.87;75.67
59435;BME280;45241;49.768;8.636;2023-07-31T11:40:24;99744.47;;;23.21;76.74
59435;BME280;45241;49.768;8.636;2023-07-31T11:42:58;99742.38;;;23.42;75.35
59435;BME280;45241;49.768;8.636;2023-07-31T11:45:26;99736.22;;;22.92;75.97
59435;BME280;45241;49.768;8.636;2023-07-31T11:47:54;99730.44;;;22.94;76.49
59435;BME280;45241;49.768;8.636;2023-07-31T11:50:20;99723.69;;;23.25;77.28
59435;BME280;45241;49.768;8.636;2023-07-31T11:52:46;99718.88;;;23.07;76.08
59435;BME280;45241;49.768;8.636;2023-07-31T11:55:13;99711.81;;;23.35;76.34
59435;BME280;45241;49.768;8.636;2023-07-31T11:57:41;99705.53;;;23.63;76.05
59435;BME280;45241;49.768;8.636;2023-07-31T12:00:09;99711.56;;;23.60;77.25
59435;BME280;45241;49.768;8.636;2023-07-31T12:02:36;99704.13;;;23.66;76.16
59435;BME280;45241;49.768;8.636;2023-07-31T12:05:02;99699.50;;;23.85;76.49
59435;BME280;45241;49.768;8.636;2023-07-31T12:07:45;99694.53;;;23.92;75.52
59435;BME280;45241;49.768;8.636;2023-07-31T12:10:11;99699.00;;;23.83;75.42
59435;BME280;45241;49.768;8.636;2023-07-31T12:12:55;99699.06;;;23.78;75.83
59435;BME280;45241;49.768;8.636;2023-07-31T12:15:21;99693.00;;;23.81;76.20
59435;BME280;45241;49.768;8.636;2023-07-31T12:17:47;99690.03;;;23.77;74.25
59435;BME280;45241;49.768;8.636;2023-07-31T12:20:15;99691.03;;;23.63;74.53
59435;BME280;45241;49.768;8.636;2023-07-31T12:22:41;99680.34;;;23.85;73.01
59435;BME280;45241;49.768;8.636;2023-07-31T12:25:07;99668.97;;;23.78;73.50
59435;BME280;45241;49.768;8.636;2023-07-31T12:27:33;99665.81;;;23.66;74.39
59435;BME280;45241;49.768;8.636;2023-07-31T12:29:58;99675.75;;;23.57;73.59
59435;BME280;45241;49.768;8.636;2023-07-31T12:32:24;99666.22;;;23.54;73.82
59435;BME280;45241;49.768;8.636;2023-07-31T12:34:50;99656.28;;;23.63;72.63
59435;BME280;45241;49.768;8.636;2023-07-31T12:37:16;99668.03;;;23.64;71.97
59435;BME280;45241;49.768;8.636;2023-07-31T12:39:42;99657.66;;;23.61;71.13
59435;BME280;45241;49.768;8.636;2023-07-31T12:42:07;99655.72;;;23.61;69.59
59435;BME280;45241;49.768;8.636;2023-07-31T12:44:32;99656.84;;;23.60;71.18
59435;BME280;45241;49.768;8.636;2023-07-31T12:46:57;99656.13;;;23.50;69.84
59435;BME280;45241;49.768;8.636;2023-07-31T12:49:23;99648.78;;;23.50;70.40
59435;BME280;45241;49.768;8.636;2023-07-31T12:51:48;99646.78;;;23.56;67.09
59435;BME280;45241;49.768;8.636;2023-07-31T12:54:13;99637.78;;;23.74;67.84
59435;BME280;45241;49.768;8.636;2023-07-31T12:56:39;99632.03;;;23.75;68.31
59435;BME280;45241;49.768;8.636;2023-07-31T12:59:05;99639.50;;;23.70;68.72
59435;BME280;45241;49.768;8.636;2023-07-31T13:01:31;99631.69;;;23.82;68.40
59435;BME280;45241;49.768;8.636;2023-07-31T13:03:56;99627.50;;;23.90;67.29
59435;BME280;45241;49.768;8.636;2023-07-31T13:06:22;99631.69;;;23.82;67.22
59435;BME280;45241;49.768;8.636;2023-07-31T13:08:47;99629.69;;;23.88;68.01
59435;BME280;45241;49.768;8.636;2023-07-31T13:11:13;99629.97;;;23.86;68.80
59435;BME280;45241;49.768;8.636;2023-07-31T13:13:38;99627.31;;;23.81;67.60